メインページ
METAR-TAF:

METAR-TAF

空港 :

サンフアン, プエルトリコ, アメリカ合衆国

ルイス・ムニョス・マリン国際空港

緯度: 18-27N, 経度: 066-00W, 海抜: 3m

現時点の気象観測

当レポートは41分前の21:56(UTC)に作成
の風 11kt
気温 29°C
湿度 84%
気圧 1014 hPa
視程: 16.1km
高度2800ftの雲は散在している
高度12000ftの雲は散在している

METAR: TJSJ 262156Z 09011KT 10SM SCT028 SCT120 29/26 A2995 RMK AO2 SLP141 VCSH S SW T02890256

時間: 18:37 (22:37 UTC)

予報

当レポートは4時間7分前の18:30(UTC)に作成
予報は26日の 18時(UTC)から 27日の 18時(UTC)まで有効
の風 5kt
視程: 10km
高度2500ftの雲はほとんどない, 積乱雲.
高度4000ftの雲は散在している
高度9000ftの千切れ雲あり
近辺で激しい雷雨
26日の 18時(UTC)から 26日の 21時(UTC)まで一時的に
変向風 12kt、最大22ktの突風を伴う
視程: 4.8km
高度2200ftの雲は散在している, 積乱雲.
高度3500ftの千切れ雲あり
激しい雷雨, 雨
26日の 2300時(UTC)から
の風 6kt
視程: 10km
高度2500ftの雲は散在している
高度7000ftの雲は散在している
高度10000ftの雲は散在している
近辺でにわか雨
27日の 1400時(UTC)から
東/北東の風 10kt
視程: 10km
高度3000ftの雲は散在している
高度5000ftの雲は散在している

TAF: TJSJ 261830Z 2618/2718 10005KT P6SM VCTS FEW025CB SCT040 BKN090 TEMPO 2618/2621 VRB12G22KT 3SM TSRA SCT022CB BKN035 FM262300 10006KT P6SM VCSH SCT025 SCT070 SCT100 FM271400 07010KT P6SM SCT030 SCT050

4,000以上の空港の気象観測と天気予報(METAR報とTAF報)

利用可能な観測所は地図上に黄色い丸と赤い丸で示す。

丸の上にカーソルを重ねると観測所名を参照できる。

次にクリックすると気象観測と天気予報を参照できる。

マップの切り替え:黒色「×」印の緑ボタンをクリックして拡大、「-」印の緑ボタンをクリックして縮小、緑色の三角印をクリックして隣りの地図に切り替え


METAR-TAF: